createdAt,value
2018-02-10T00:01:13.976Z,40.47
2018-02-10T00:03:43.125Z,45.40
2018-02-10T00:06:12.282Z,44.80
2018-02-10T00:08:41.492Z,41.53
2018-02-10T00:11:10.632Z,42.40
2018-02-10T00:13:40.498Z,43.72
2018-02-10T00:16:09.827Z,48.83
2018-02-10T00:18:39.229Z,49.65
2018-02-10T00:21:08.811Z,48.47
2018-02-10T00:23:37.908Z,49.85
2018-02-10T00:26:07.529Z,48.85
2018-02-10T00:28:37.017Z,47.80
2018-02-10T00:31:06.244Z,46.45
2018-02-10T00:33:35.649Z,48.90
2018-02-10T00:36:05.330Z,49.45
2018-02-10T00:38:35.052Z,49.88
2018-02-10T00:41:04.651Z,50.40
2018-02-10T00:43:34.347Z,46.97
2018-02-10T00:46:03.852Z,58.80
2018-02-10T00:48:33.128Z,44.50
2018-02-10T00:51:02.485Z,46.10
2018-02-10T00:53:31.908Z,43.83
2018-02-10T00:56:00.978Z,44.13
2018-02-10T00:58:30.114Z,49.30
2018-02-10T01:00:59.653Z,46.00
2018-02-10T01:03:28.664Z,50.00
2018-02-10T01:05:58.226Z,47.83
2018-02-10T01:08:27.526Z,44.28
2018-02-10T01:10:57.268Z,39.40
2018-02-10T01:13:26.662Z,43.67
2018-02-10T01:15:55.806Z,41.40
2018-02-10T01:18:25.217Z,47.75
2018-02-10T01:20:54.399Z,44.42
2018-02-10T01:23:23.734Z,46.10
2018-02-10T01:25:53.132Z,45.72
2018-02-10T01:28:22.590Z,43.03
2018-02-10T01:30:52.091Z,42.65
2018-02-10T01:33:21.913Z,44.97
2018-02-10T01:35:51.517Z,43.42
2018-02-10T01:38:20.813Z,44.00
2018-02-10T01:40:50.635Z,41.33
2018-02-10T01:43:20.344Z,38.63
2018-02-10T01:45:49.545Z,41.95
2018-02-10T01:48:18.984Z,48.67
2018-02-10T01:50:48.230Z,46.28
2018-02-10T01:53:17.690Z,44.10
2018-02-10T01:55:46.954Z,46.88
2018-02-10T01:58:16.460Z,46.17
2018-02-10T02:00:46.258Z,51.42
2018-02-10T02:03:15.667Z,51.03
2018-02-10T02:05:45.046Z,50.12
2018-02-10T02:08:14.470Z,53.28
2018-02-10T02:10:43.966Z,46.30
2018-02-10T02:13:13.460Z,46.37
2018-02-10T02:15:42.782Z,52.85
2018-02-10T02:18:12.128Z,46.00
2018-02-10T02:20:41.444Z,44.10
2018-02-10T02:23:11.147Z,45.35
2018-02-10T02:25:40.904Z,48.40
2018-02-10T02:28:10.544Z,49.63
2018-02-10T02:30:40.232Z,50.58
2018-02-10T02:33:09.598Z,49.22
2018-02-10T02:35:39.170Z,48.53
2018-02-10T02:38:08.952Z,51.22
2018-02-10T02:40:38.725Z,44.72
2018-02-10T02:43:08.590Z,52.25
2018-02-10T02:45:38.287Z,44.88
2018-02-10T02:48:07.709Z,45.65
2018-02-10T02:50:37.108Z,46.88
2018-02-10T02:53:06.381Z,42.33
2018-02-10T02:55:36.070Z,36.67
2018-02-10T02:58:05.390Z,41.08
2018-02-10T03:00:34.797Z,39.40
2018-02-10T03:03:04.337Z,40.47
2018-02-10T03:05:33.705Z,38.92
2018-02-10T03:08:03.116Z,37.83
2018-02-10T03:10:32.656Z,35.13
2018-02-10T03:13:01.735Z,42.92
2018-02-10T03:15:31.162Z,36.40
2018-02-10T03:18:00.449Z,41.00
2018-02-10T03:20:29.781Z,38.00
2018-02-10T03:22:59.419Z,41.40
2018-02-10T03:25:28.946Z,33.28
2018-02-10T03:27:58.368Z,41.35
2018-02-10T03:30:27.810Z,36.85
2018-02-10T03:32:57.552Z,39.08
2018-02-10T03:35:27.985Z,36.75
2018-02-10T03:37:57.302Z,36.72
2018-02-10T03:40:26.902Z,38.15
2018-02-10T03:42:56.203Z,42.00
2018-02-10T03:45:25.833Z,45.00
2018-02-10T03:47:55.312Z,36.15
2018-02-10T03:50:24.629Z,37.25
2018-02-10T03:52:53.625Z,33.70
2018-02-10T03:55:23.704Z,38.72
2018-02-10T03:57:53.089Z,35.88
2018-02-10T04:00:22.586Z,38.75
2018-02-10T04:02:52.140Z,37.78
2018-02-10T04:05:21.733Z,31.12
2018-02-10T04:07:50.994Z,33.70
2018-02-10T04:10:20.451Z,33.67
2018-02-10T04:12:49.565Z,33.47
2018-02-10T04:15:19.089Z,37.05
2018-02-10T04:17:48.833Z,38.17
2018-02-10T04:20:18.262Z,39.58
2018-02-10T04:22:47.824Z,39.42
2018-02-10T04:25:17.380Z,35.17
2018-02-10T04:27:47.008Z,35.78
2018-02-10T04:30:16.478Z,39.13
2018-02-10T04:32:46.058Z,42.17
2018-02-10T04:35:15.668Z,40.03
2018-02-10T04:37:45.143Z,39.15
2018-02-10T04:40:14.596Z,40.63
2018-02-10T04:42:44.003Z,40.92
2018-02-10T04:45:13.515Z,37.40
2018-02-10T04:47:42.964Z,43.05
2018-02-10T04:50:12.384Z,43.03
2018-02-10T04:52:41.965Z,36.85
2018-02-10T04:55:11.374Z,41.85
2018-02-10T04:57:40.754Z,37.35
2018-02-10T05:00:10.309Z,34.15
2018-02-10T05:02:40.033Z,37.67
2018-02-10T05:05:10.185Z,33.35
2018-02-10T05:07:39.509Z,32.55
2018-02-10T05:10:09.300Z,33.10
2018-02-10T05:12:38.679Z,34.65
2018-02-10T05:15:07.858Z,32.88
2018-02-10T05:17:37.137Z,38.40
2018-02-10T05:20:06.540Z,39.65
2018-02-10T05:22:36.194Z,38.78
2018-02-10T05:25:05.744Z,42.80
2018-02-10T05:27:35.120Z,37.05
2018-02-10T05:30:04.529Z,40.40
2018-02-10T05:32:34.995Z,32.88
2018-02-10T05:35:04.401Z,35.70
2018-02-10T05:37:33.573Z,36.67
2018-02-10T05:40:02.610Z,43.25
2018-02-10T05:42:31.994Z,36.38
2018-02-10T05:45:01.219Z,42.40
2018-02-10T05:47:30.640Z,32.00
2018-02-10T05:50:00.131Z,39.40
2018-02-10T05:52:29.420Z,34.90
2018-02-10T05:54:58.620Z,42.45
2018-02-10T05:57:28.014Z,37.50
2018-02-10T05:59:57.098Z,36.88
2018-02-10T06:02:26.230Z,36.80
2018-02-10T06:04:55.436Z,37.78
2018-02-10T06:07:24.737Z,39.95
2018-02-10T06:09:53.829Z,41.25
2018-02-10T06:12:23.066Z,40.75
2018-02-10T06:14:52.229Z,41.83
2018-02-10T06:17:21.735Z,41.42
2018-02-10T06:19:50.902Z,39.10
2018-02-10T06:22:20.068Z,36.65
2018-02-10T06:24:49.539Z,35.85
2018-02-10T06:27:18.832Z,38.50
2018-02-10T06:29:47.721Z,38.53
2018-02-10T06:32:16.758Z,37.35
2018-02-10T06:34:45.767Z,38.90
2018-02-10T06:37:15.219Z,36.45
2018-02-10T06:39:44.617Z,35.13
2018-02-10T06:42:13.633Z,34.15
2018-02-10T06:44:42.819Z,31.85
2018-02-10T06:47:11.730Z,33.67
2018-02-10T06:49:41.146Z,33.45
2018-02-10T06:52:10.623Z,28.35
2018-02-10T06:54:39.984Z,28.48
2018-02-10T06:57:09.459Z,26.52
2018-02-10T06:59:39.029Z,27.27
2018-02-10T07:02:08.799Z,28.20
2018-02-10T07:04:38.356Z,30.00
2018-02-10T07:07:08.094Z,60.53
2018-02-10T07:09:37.328Z,30.73
2018-02-10T07:12:07.066Z,28.33
2018-02-10T07:14:36.761Z,57.22
2018-02-10T07:17:06.230Z,31.62
2018-02-10T07:19:35.479Z,34.78
2018-02-10T07:22:04.884Z,30.92
2018-02-10T07:24:34.597Z,32.40
2018-02-10T07:27:03.918Z,33.55
2018-02-10T07:29:33.714Z,27.77
2018-02-10T07:32:03.129Z,27.83
2018-02-10T07:34:32.466Z,28.58
2018-02-10T07:37:02.048Z,27.40
2018-02-10T07:39:31.238Z,31.63
2018-02-10T07:42:01.031Z,28.45
2018-02-10T07:44:30.784Z,26.70
2018-02-10T07:47:00.266Z,30.80
2018-02-10T07:49:29.847Z,30.65
2018-02-10T07:51:58.917Z,29.75
2018-02-10T07:54:27.974Z,33.00
2018-02-10T07:56:57.718Z,36.60
2018-02-10T07:59:27.009Z,35.13
2018-02-10T08:01:56.289Z,31.20
2018-02-10T08:04:25.725Z,31.58
2018-02-10T08:06:55.058Z,33.03
2018-02-10T08:09:24.580Z,32.05
2018-02-10T08:11:53.901Z,32.25
2018-02-10T08:14:23.675Z,34.15
2018-02-10T08:16:52.892Z,31.60
2018-02-10T08:19:22.381Z,28.90
2018-02-10T08:21:52.601Z,33.70
2018-02-10T08:24:22.069Z,31.90
2018-02-10T08:26:51.566Z,30.25
2018-02-10T08:29:21.093Z,28.58
2018-02-10T08:31:50.672Z,26.08
2018-02-10T08:34:20.163Z,29.15
2018-02-10T08:36:49.569Z,28.25
2018-02-10T08:39:19.092Z,28.55
2018-02-10T08:41:48.611Z,27.52
2018-02-10T08:44:18.009Z,28.67
2018-02-10T08:46:47.894Z,26.45
2018-02-10T08:49:17.346Z,30.05
2018-02-10T08:51:46.893Z,28.42
2018-02-10T08:54:16.036Z,32.70
2018-02-10T08:56:45.278Z,25.27
2018-02-10T08:59:14.545Z,23.50
2018-02-10T09:01:43.854Z,29.85
2018-02-10T09:04:13.629Z,25.88
2018-02-10T09:06:42.868Z,32.25
2018-02-10T09:09:11.965Z,27.05
2018-02-10T09:11:41.101Z,26.15
2018-02-10T09:14:09.953Z,27.45
2018-02-10T09:16:39.267Z,28.17
2018-02-10T09:19:08.180Z,27.70
2018-02-10T09:21:37.564Z,28.83
2018-02-10T09:24:06.955Z,27.40
2018-02-10T09:26:36.122Z,26.00
2018-02-10T09:29:05.250Z,28.70
2018-02-10T09:31:34.505Z,37.88
2018-02-10T09:34:03.598Z,31.92
2018-02-10T09:36:32.850Z,31.37
2018-02-10T09:39:02.392Z,26.27
2018-02-10T09:41:31.489Z,28.62
2018-02-10T09:44:00.617Z,28.50
2018-02-10T09:46:29.862Z,28.52
2018-02-10T09:48:59.145Z,30.50
2018-02-10T09:51:28.441Z,24.90
2018-02-10T09:53:57.740Z,27.20
2018-02-10T09:56:26.797Z,26.95
2018-02-10T09:58:56.110Z,24.65
2018-02-10T10:01:25.282Z,31.37
2018-02-10T10:03:54.681Z,36.83
2018-02-10T10:06:23.985Z,27.10
2018-02-10T10:08:53.451Z,23.42
2018-02-10T10:11:22.689Z,23.67
2018-02-10T10:13:51.955Z,22.23
2018-02-10T10:16:21.107Z,25.02
2018-02-10T10:18:50.296Z,24.87
2018-02-10T10:21:19.585Z,26.60
2018-02-10T10:23:48.664Z,25.95
2018-02-10T10:26:17.686Z,23.80
2018-02-10T10:28:47.078Z,26.23
2018-02-10T10:31:16.561Z,25.42
2018-02-10T10:33:45.744Z,30.62
2018-02-10T10:36:15.402Z,26.00
2018-02-10T10:38:44.657Z,26.58
2018-02-10T10:41:13.624Z,28.67
2018-02-10T10:43:42.620Z,23.45
2018-02-10T10:46:11.704Z,23.57
2018-02-10T10:48:41.533Z,24.30
2018-02-10T10:51:11.403Z,25.27
2018-02-10T10:53:40.749Z,23.90
2018-02-10T10:56:09.653Z,26.98
2018-02-10T10:58:38.821Z,23.93
2018-02-10T11:01:07.947Z,25.95
2018-02-10T11:03:37.461Z,24.67
2018-02-10T11:06:06.967Z,34.60
2018-02-10T11:08:36.470Z,24.93
2018-02-10T11:11:06.083Z,28.60
2018-02-10T11:13:35.288Z,24.60
2018-02-10T11:16:04.696Z,28.62
2018-02-10T11:18:34.115Z,25.40
2018-02-10T11:21:03.174Z,28.80
2018-02-10T11:23:32.382Z,27.05
2018-02-10T11:26:01.590Z,28.23
2018-02-10T11:28:31.101Z,25.62
2018-02-10T11:31:00.247Z,32.72
2018-02-10T11:33:29.833Z,26.92
2018-02-10T11:35:59.218Z,24.30
2018-02-10T11:38:28.626Z,27.58
2018-02-10T11:40:58.007Z,30.37
2018-02-10T11:43:27.576Z,29.35
2018-02-10T11:45:57.010Z,26.92
2018-02-10T11:48:26.336Z,27.77
2018-02-10T11:50:55.610Z,25.73
2018-02-10T11:53:24.701Z,30.30
2018-02-10T11:55:54.087Z,27.15
2018-02-10T11:58:23.329Z,31.80
2018-02-10T12:00:52.730Z,28.33
2018-02-10T12:03:21.977Z,28.02
2018-02-10T12:05:51.302Z,28.77
2018-02-10T12:08:20.916Z,32.08
2018-02-10T12:10:50.228Z,30.58
2018-02-10T12:13:19.820Z,30.62
2018-02-10T12:15:48.948Z,33.08
2018-02-10T12:18:18.050Z,29.55
2018-02-10T12:20:47.326Z,30.95
2018-02-10T12:23:16.945Z,28.25
2018-02-10T12:25:46.430Z,35.08
2018-02-10T12:28:15.892Z,32.58
2018-02-10T12:30:45.097Z,34.22
2018-02-10T12:33:14.329Z,33.50
2018-02-10T12:35:43.779Z,29.02
2018-02-10T12:38:13.417Z,31.90
2018-02-10T12:40:43.121Z,39.03
2018-02-10T12:43:13.169Z,35.38
2018-02-10T12:45:42.781Z,36.72
2018-02-10T12:48:17.709Z,36.03
2018-02-10T12:50:47.128Z,39.60
2018-02-10T12:53:16.407Z,38.53
2018-02-10T12:55:45.897Z,38.20
2018-02-10T12:58:15.297Z,36.38
2018-02-10T13:00:44.434Z,31.98
2018-02-10T13:03:14.727Z,36.08
2018-02-10T13:05:43.956Z,37.92
2018-02-10T13:08:13.234Z,34.17
2018-02-10T13:10:43.066Z,35.33
2018-02-10T13:13:12.457Z,33.88
2018-02-10T13:15:42.016Z,39.00
2018-02-10T13:18:11.316Z,38.63
2018-02-10T13:20:40.630Z,42.25
2018-02-10T13:23:10.147Z,41.15
2018-02-10T13:25:39.694Z,36.78
2018-02-10T13:28:09.024Z,37.22
2018-02-10T13:30:38.496Z,38.55
2018-02-10T13:33:08.440Z,35.75
2018-02-10T13:35:37.828Z,38.17
2018-02-10T13:38:07.266Z,38.90
2018-02-10T13:40:36.793Z,41.53
2018-02-10T13:43:06.248Z,32.88
2018-02-10T13:45:35.718Z,37.50
2018-02-10T13:48:05.076Z,35.55
2018-02-10T13:50:34.697Z,40.63
2018-02-10T13:53:03.994Z,39.75
2018-02-10T13:55:33.165Z,38.53
2018-02-10T13:58:02.305Z,40.10
2018-02-10T14:00:31.856Z,43.35
2018-02-10T14:03:02.017Z,40.97
2018-02-10T14:05:31.406Z,44.10
2018-02-10T14:08:00.782Z,46.10
2018-02-10T14:10:30.360Z,40.22
2018-02-10T14:13:00.038Z,45.40
2018-02-10T14:15:29.409Z,41.13
2018-02-10T14:17:58.825Z,42.08
2018-02-10T14:20:28.096Z,45.08
2018-02-10T14:22:57.633Z,42.55
2018-02-10T14:25:27.821Z,40.35
2018-02-10T14:27:57.528Z,40.53
2018-02-10T14:30:27.949Z,45.70
2018-02-10T14:32:57.468Z,45.10
2018-02-10T14:35:28.638Z,44.97
2018-02-10T14:37:58.034Z,44.35
2018-02-10T14:40:27.614Z,40.83
2018-02-10T14:42:57.104Z,41.53
2018-02-10T14:45:26.943Z,43.40
2018-02-10T14:47:56.423Z,40.53
2018-02-10T14:50:25.567Z,35.42
2018-02-10T14:52:55.052Z,35.30
2018-02-10T14:55:24.744Z,41.83
2018-02-10T14:57:53.873Z,51.53
2018-02-10T15:00:23.454Z,41.00
2018-02-10T15:02:52.967Z,49.88
2018-02-10T15:05:22.873Z,42.72
2018-02-10T15:07:52.112Z,41.08
2018-02-10T15:10:21.568Z,37.53
2018-02-10T15:12:50.868Z,37.97
2018-02-10T15:15:20.249Z,41.28
2018-02-10T15:17:50.186Z,36.13
2018-02-10T15:20:20.006Z,34.28
2018-02-10T15:22:49.632Z,35.63
2018-02-10T15:25:19.122Z,36.50
2018-02-10T15:27:48.523Z,46.42
2018-02-10T15:30:29.188Z,35.13
2018-02-10T15:33:09.206Z,35.05
2018-02-10T15:35:38.739Z,24.27
2018-02-10T15:38:08.050Z,24.50
2018-02-10T15:40:37.873Z,24.45
2018-02-10T15:43:07.482Z,23.77
2018-02-10T15:45:36.837Z,33.58
2018-02-10T15:48:06.248Z,35.00
2018-02-10T15:50:35.575Z,33.90
2018-02-10T15:53:04.855Z,28.80
2018-02-10T15:55:34.338Z,28.35
2018-02-10T15:58:04.111Z,29.80
2018-02-10T16:00:33.454Z,33.25
2018-02-10T16:03:02.844Z,29.95
2018-02-10T16:05:32.281Z,33.63
2018-02-10T16:08:01.895Z,30.48
2018-02-10T16:10:31.140Z,33.13
2018-02-10T16:13:00.566Z,30.62
2018-02-10T16:15:30.068Z,31.23
2018-02-10T16:17:59.322Z,34.03
2018-02-10T16:20:28.721Z,32.08
2018-02-10T16:22:58.335Z,29.23
2018-02-10T16:25:28.174Z,27.77
2018-02-10T16:27:57.738Z,27.65
2018-02-10T16:30:27.073Z,28.62
2018-02-10T16:32:56.262Z,27.40
2018-02-10T16:35:25.759Z,28.08
2018-02-10T16:37:55.468Z,26.73
2018-02-10T16:40:25.014Z,24.10
2018-02-10T16:42:54.182Z,24.35
2018-02-10T16:45:23.369Z,27.27
2018-02-10T16:47:52.901Z,28.00
2018-02-10T16:50:22.619Z,29.90
2018-02-10T16:52:51.922Z,24.80
2018-02-10T16:55:21.424Z,31.48
2018-02-10T16:57:50.762Z,26.05
2018-02-10T17:00:20.177Z,25.58
2018-02-10T17:02:49.379Z,26.85
2018-02-10T17:05:18.664Z,26.62
2018-02-10T17:07:48.061Z,27.05
2018-02-10T17:10:17.542Z,25.15
2018-02-10T17:12:46.974Z,25.10
2018-02-10T17:15:16.069Z,24.42
2018-02-10T17:17:45.296Z,25.23
2018-02-10T17:20:15.120Z,25.05
2018-02-10T17:22:44.445Z,20.95
2018-02-10T17:25:13.910Z,20.98
2018-02-10T17:27:43.309Z,25.08
2018-02-10T17:30:13.028Z,25.77
2018-02-10T17:32:42.552Z,29.20
2018-02-10T17:35:12.154Z,23.67
2018-02-10T17:37:41.677Z,22.55
2018-02-10T17:40:11.007Z,26.50
2018-02-10T17:42:40.956Z,21.62
2018-02-10T17:45:10.676Z,27.20
2018-02-10T17:47:40.393Z,25.88
2018-02-10T17:50:10.242Z,20.25
2018-02-10T17:52:39.843Z,25.00
2018-02-10T17:55:09.624Z,22.45
2018-02-10T17:57:39.184Z,28.20
2018-02-10T18:00:08.930Z,24.20
2018-02-10T18:02:38.338Z,25.90
2018-02-10T18:05:07.878Z,24.23
2018-02-10T18:07:37.408Z,24.98
2018-02-10T18:10:06.785Z,25.00
2018-02-10T18:12:36.585Z,22.23
2018-02-10T18:15:06.022Z,27.37
2018-02-10T18:17:35.665Z,21.12
2018-02-10T18:20:04.954Z,20.80
2018-02-10T18:22:34.396Z,25.52
2018-02-10T18:25:04.225Z,20.62
2018-02-10T18:27:34.010Z,18.48
2018-02-10T18:30:03.861Z,21.92
2018-02-10T18:32:33.296Z,18.33
2018-02-10T18:35:02.978Z,21.73
2018-02-10T18:37:32.334Z,21.75
2018-02-10T18:40:01.812Z,17.70
2018-02-10T18:42:31.345Z,16.87
2018-02-10T18:45:00.846Z,22.52
2018-02-10T18:47:30.261Z,20.40
2018-02-10T18:49:59.553Z,20.40
2018-02-10T18:52:29.164Z,18.25
2018-02-10T18:54:58.534Z,20.73
2018-02-10T18:57:27.984Z,19.73
2018-02-10T18:59:57.801Z,20.35
2018-02-10T19:02:27.210Z,20.02
2018-02-10T19:04:56.618Z,12.52
2018-02-10T19:07:26.008Z,19.52
2018-02-10T19:09:55.498Z,19.77
2018-02-10T19:12:25.138Z,15.80
2018-02-10T19:14:54.812Z,21.12
2018-02-10T19:17:24.242Z,16.42
2018-02-10T19:19:53.472Z,26.05
2018-02-10T19:22:22.790Z,16.45
2018-02-10T19:24:52.064Z,20.60
2018-02-10T19:27:21.536Z,23.25
2018-02-10T19:29:50.916Z,24.77
2018-02-10T19:32:20.505Z,23.95
2018-02-10T19:34:49.932Z,22.50
2018-02-10T19:37:19.241Z,20.35
2018-02-10T19:39:48.555Z,19.42
2018-02-10T19:42:17.967Z,21.17
2018-02-10T19:44:47.680Z,22.02
2018-02-10T19:47:16.746Z,19.37
2018-02-10T19:49:46.156Z,19.40
2018-02-10T19:52:15.726Z,21.00
2018-02-10T19:54:44.897Z,23.75
2018-02-10T19:57:14.489Z,16.92
2018-02-10T19:59:44.369Z,24.30
2018-02-10T20:02:13.880Z,20.25
2018-02-10T20:04:43.695Z,22.40
2018-02-10T20:07:13.721Z,23.23
2018-02-10T20:09:43.281Z,26.12
2018-02-10T20:12:12.740Z,30.00
2018-02-10T20:14:42.234Z,23.58
2018-02-10T20:17:11.699Z,21.73
2018-02-10T20:19:41.056Z,27.05
2018-02-10T20:22:10.933Z,25.62
2018-02-10T20:24:40.246Z,28.35
2018-02-10T20:27:09.282Z,33.40
2018-02-10T20:29:38.470Z,28.73
2018-02-10T20:32:07.506Z,34.63
2018-02-10T20:34:36.927Z,34.92
2018-02-10T20:37:06.205Z,26.75
2018-02-10T20:39:35.540Z,34.25
2018-02-10T20:42:04.739Z,27.75
2018-02-10T20:44:34.126Z,25.55
2018-02-10T20:47:03.405Z,29.05
2018-02-10T20:49:32.874Z,24.70
2018-02-10T20:52:02.278Z,22.42
2018-02-10T20:54:31.482Z,25.08
2018-02-10T20:57:00.891Z,30.95
2018-02-10T20:59:30.461Z,31.58
2018-02-10T21:01:59.562Z,28.67
2018-02-10T21:04:28.869Z,25.88
2018-02-10T21:06:58.046Z,26.75
2018-02-10T21:09:27.318Z,27.20
2018-02-10T21:11:57.181Z,27.37
2018-02-10T21:14:26.870Z,26.45
2018-02-10T21:16:56.097Z,26.67
2018-02-10T21:19:25.355Z,22.52
2018-02-10T21:21:54.685Z,24.25
2018-02-10T21:24:23.873Z,32.60
2018-02-10T21:26:53.165Z,23.48
2018-02-10T21:29:22.549Z,17.77
2018-02-10T21:31:51.995Z,16.20
2018-02-10T21:34:21.899Z,25.02
2018-02-10T21:36:51.018Z,17.10
2018-02-10T21:39:20.358Z,15.88
2018-02-10T21:41:49.465Z,18.98
2018-02-10T21:44:18.792Z,20.35
2018-02-10T21:46:48.164Z,19.23
2018-02-10T21:49:17.365Z,21.83
2018-02-10T21:51:46.786Z,20.65
2018-02-10T21:54:16.221Z,18.00
2018-02-10T21:56:45.830Z,19.55
2018-02-10T21:59:15.301Z,21.02
2018-02-10T22:01:44.285Z,23.95
2018-02-10T22:04:14.103Z,19.50
2018-02-10T22:06:43.437Z,17.27
2018-02-10T22:09:13.074Z,19.37
2018-02-10T22:11:42.553Z,19.80
2018-02-10T22:14:11.756Z,17.27
2018-02-10T22:16:40.946Z,18.08
2018-02-10T22:19:10.311Z,19.10
2018-02-10T22:21:39.546Z,20.23
2018-02-10T22:24:08.615Z,28.58
2018-02-10T22:26:37.973Z,19.98
2018-02-10T22:29:07.115Z,20.60
2018-02-10T22:31:36.387Z,17.33
2018-02-10T22:34:05.506Z,17.08
2018-02-10T22:36:34.856Z,15.52
2018-02-10T22:39:04.200Z,17.98
2018-02-10T22:41:33.301Z,18.75
2018-02-10T22:44:02.728Z,16.73
2018-02-10T22:46:31.898Z,20.60
2018-02-10T22:49:01.041Z,14.90
2018-02-10T22:51:30.297Z,18.23
2018-02-10T22:53:59.785Z,14.65
2018-02-10T22:56:30.021Z,15.90
2018-02-10T22:58:59.121Z,15.13
2018-02-10T23:01:28.134Z,19.20
2018-02-10T23:03:57.449Z,16.58
2018-02-10T23:06:27.127Z,21.12
2018-02-10T23:08:56.444Z,15.88
2018-02-10T23:11:25.664Z,15.38
2018-02-10T23:13:54.477Z,15.98
2018-02-10T23:16:23.692Z,19.52
2018-02-10T23:18:52.588Z,12.98
2018-02-10T23:21:21.530Z,16.35
2018-02-10T23:23:50.712Z,15.48
2018-02-10T23:26:20.304Z,17.25
2018-02-10T23:28:49.522Z,18.20
2018-02-10T23:31:18.670Z,13.80
2018-02-10T23:33:48.005Z,18.05
2018-02-10T23:36:17.092Z,17.77
2018-02-10T23:38:46.201Z,20.08
2018-02-10T23:41:15.333Z,15.98
2018-02-10T23:43:44.388Z,18.73
2018-02-10T23:46:13.635Z,18.45
2018-02-10T23:48:42.941Z,17.35
2018-02-10T23:51:12.443Z,18.80
2018-02-10T23:53:41.482Z,16.17
2018-02-10T23:56:10.599Z,19.58
2018-02-10T23:58:39.482Z,16.85
